sensor_id;sensor_type;location;lat;lon;timestamp;P1;durP1;ratioP1;P2;durP2;ratioP2
46701;SDS011;33449;50.712;7.124;2023-04-15T00:00:07;13.13;;;3.67;;
46701;SDS011;33449;50.712;7.124;2023-04-15T00:05:06;15.15;;;3.17;;
46701;SDS011;33449;50.712;7.124;2023-04-15T00:07:34;5.35;;;2.85;;
46701;SDS011;33449;50.712;7.124;2023-04-15T00:12:37;7.40;;;3.35;;
46701;SDS011;33449;50.712;7.124;2023-04-15T00:15:04;9.77;;;3.40;;
46701;SDS011;33449;50.712;7.124;2023-04-15T00:17:33;8.18;;;3.60;;
46701;SDS011;33449;50.712;7.124;2023-04-15T00:20:00;10.43;;;3.55;;
46701;SDS011;33449;50.712;7.124;2023-04-15T00:22:28;11.20;;;3.33;;
46701;SDS011;33449;50.712;7.124;2023-04-15T00:24:55;7.97;;;3.20;;
46701;SDS011;33449;50.712;7.124;2023-04-15T00:27:29;6.03;;;2.90;;
46701;SDS011;33449;50.712;7.124;2023-04-15T00:29:56;8.90;;;3.15;;
46701;SDS011;33449;50.712;7.124;2023-04-15T00:32:23;7.15;;;4.03;;
46701;SDS011;33449;50.712;7.124;2023-04-15T00:34:50;11.23;;;3.60;;
46701;SDS011;33449;50.712;7.124;2023-04-15T00:42:30;10.63;;;3.22;;
46701;SDS011;33449;50.712;7.124;2023-04-15T00:44:57;9.43;;;3.92;;
46701;SDS011;33449;50.712;7.124;2023-04-15T00:47:24;10.18;;;4.18;;
46701;SDS011;33449;50.712;7.124;2023-04-15T00:49:52;12.25;;;4.32;;
46701;SDS011;33449;50.712;7.124;2023-04-15T00:52:19;9.85;;;3.75;;
46701;SDS011;33449;50.712;7.124;2023-04-15T00:57:27;11.23;;;3.97;;
46701;SDS011;33449;50.712;7.124;2023-04-15T00:59:55;10.82;;;4.13;;
46701;SDS011;33449;50.712;7.124;2023-04-15T01:02:24;10.98;;;3.78;;
46701;SDS011;33449;50.712;7.124;2023-04-15T01:05:08;8.70;;;3.42;;
46701;SDS011;33449;50.712;7.124;2023-04-15T01:08:10;10.50;;;3.72;;
46701;SDS011;33449;50.712;7.124;2023-04-15T01:11:00;11.32;;;3.17;;
46701;SDS011;33449;50.712;7.124;2023-04-15T01:13:46;12.68;;;3.20;;
46701;SDS011;33449;50.712;7.124;2023-04-15T01:16:32;6.93;;;2.92;;
46701;SDS011;33449;50.712;7.124;2023-04-15T01:19:18;10.00;;;3.47;;
46701;SDS011;33449;50.712;7.124;2023-04-15T01:22:14;7.22;;;3.00;;
46701;SDS011;33449;50.712;7.124;2023-04-15T01:27:40;10.27;;;2.95;;
46701;SDS011;33449;50.712;7.124;2023-04-15T01:30:07;6.72;;;3.15;;
46701;SDS011;33449;50.712;7.124;2023-04-15T01:32:35;12.70;;;2.95;;
46701;SDS011;33449;50.712;7.124;2023-04-15T01:35:03;6.55;;;2.38;;
46701;SDS011;33449;50.712;7.124;2023-04-15T01:37:30;5.63;;;2.90;;
46701;SDS011;33449;50.712;7.124;2023-04-15T01:39:57;14.10;;;2.90;;
46701;SDS011;33449;50.712;7.124;2023-04-15T01:42:24;12.48;;;4.97;;
46701;SDS011;33449;50.712;7.124;2023-04-15T01:44:52;11.13;;;4.07;;
46701;SDS011;33449;50.712;7.124;2023-04-15T01:47:19;13.82;;;4.72;;
46701;SDS011;33449;50.712;7.124;2023-04-15T01:49:47;11.85;;;3.50;;
46701;SDS011;33449;50.712;7.124;2023-04-15T01:52:14;10.32;;;3.67;;
46701;SDS011;33449;50.712;7.124;2023-04-15T01:54:41;8.02;;;3.53;;
46701;SDS011;33449;50.712;7.124;2023-04-15T01:57:08;14.18;;;3.80;;
46701;SDS011;33449;50.712;7.124;2023-04-15T01:59:35;9.32;;;3.50;;
46701;SDS011;33449;50.712;7.124;2023-04-15T02:02:03;9.30;;;3.20;;
46701;SDS011;33449;50.712;7.124;2023-04-15T02:07:16;9.27;;;3.78;;
46701;SDS011;33449;50.712;7.124;2023-04-15T02:09:43;8.98;;;3.83;;
46701;SDS011;33449;50.712;7.124;2023-04-15T02:12:11;8.73;;;3.50;;
46701;SDS011;33449;50.712;7.124;2023-04-15T02:14:38;9.73;;;3.55;;
46701;SDS011;33449;50.712;7.124;2023-04-15T02:22:13;22.88;;;4.70;;
46701;SDS011;33449;50.712;7.124;2023-04-15T02:30:10;8.63;;;2.90;;
46701;SDS011;33449;50.712;7.124;2023-04-15T02:32:39;9.50;;;3.22;;
46701;SDS011;33449;50.712;7.124;2023-04-15T02:35:08;11.93;;;3.30;;
46701;SDS011;33449;50.712;7.124;2023-04-15T02:37:36;5.88;;;2.85;;
46701;SDS011;33449;50.712;7.124;2023-04-15T02:40:09;9.95;;;3.78;;
46701;SDS011;33449;50.712;7.124;2023-04-15T02:45:04;9.77;;;2.75;;
46701;SDS011;33449;50.712;7.124;2023-04-15T02:47:32;11.25;;;3.45;;
46701;SDS011;33449;50.712;7.124;2023-04-15T02:52:40;12.65;;;3.83;;
46701;SDS011;33449;50.712;7.124;2023-04-15T02:57:47;7.80;;;3.05;;
46701;SDS011;33449;50.712;7.124;2023-04-15T03:00:14;10.10;;;3.58;;
46701;SDS011;33449;50.712;7.124;2023-04-15T03:03:00;6.63;;;2.72;;
46701;SDS011;33449;50.712;7.124;2023-04-15T03:05:28;7.18;;;2.75;;
46701;SDS011;33449;50.712;7.124;2023-04-15T03:07:56;7.22;;;3.00;;
46701;SDS011;33449;50.712;7.124;2023-04-15T03:10:23;6.38;;;2.97;;
46701;SDS011;33449;50.712;7.124;2023-04-15T03:12:50;10.13;;;3.08;;
46701;SDS011;33449;50.712;7.124;2023-04-15T03:17:55;8.13;;;3.22;;
46701;SDS011;33449;50.712;7.124;2023-04-15T03:20:23;11.20;;;3.05;;
46701;SDS011;33449;50.712;7.124;2023-04-15T03:22:50;7.05;;;2.60;;
46701;SDS011;33449;50.712;7.124;2023-04-15T03:25:17;7.78;;;2.70;;
46701;SDS011;33449;50.712;7.124;2023-04-15T03:27:44;12.18;;;3.08;;
46701;SDS011;33449;50.712;7.124;2023-04-15T03:35:50;9.13;;;4.03;;
46701;SDS011;33449;50.712;7.124;2023-04-15T03:38:17;7.53;;;3.58;;
46701;SDS011;33449;50.712;7.124;2023-04-15T03:40:45;5.65;;;3.22;;
46701;SDS011;33449;50.712;7.124;2023-04-15T03:43:12;8.45;;;3.85;;
46701;SDS011;33449;50.712;7.124;2023-04-15T03:45:39;6.78;;;3.15;;
46701;SDS011;33449;50.712;7.124;2023-04-15T03:50:48;9.68;;;2.65;;
46701;SDS011;33449;50.712;7.124;2023-04-15T03:53:15;7.72;;;2.70;;
46701;SDS011;33449;50.712;7.124;2023-04-15T03:55:42;9.75;;;3.88;;
46701;SDS011;33449;50.712;7.124;2023-04-15T03:58:09;9.52;;;3.13;;
46701;SDS011;33449;50.712;7.124;2023-04-15T04:00:38;5.70;;;2.90;;
46701;SDS011;33449;50.712;7.124;2023-04-15T04:05:45;8.65;;;3.38;;
46701;SDS011;33449;50.712;7.124;2023-04-15T04:08:12;11.98;;;3.10;;
46701;SDS011;33449;50.712;7.124;2023-04-15T04:10:41;7.43;;;3.10;;
46701;SDS011;33449;50.712;7.124;2023-04-15T04:13:08;5.40;;;2.42;;
46701;SDS011;33449;50.712;7.124;2023-04-15T04:15:35;6.72;;;2.28;;
46701;SDS011;33449;50.712;7.124;2023-04-15T04:20:43;5.43;;;2.67;;
46701;SDS011;33449;50.712;7.124;2023-04-15T04:23:10;10.77;;;3.05;;
46701;SDS011;33449;50.712;7.124;2023-04-15T04:25:37;9.98;;;2.90;;
46701;SDS011;33449;50.712;7.124;2023-04-15T04:28:04;7.88;;;3.45;;
46701;SDS011;33449;50.712;7.124;2023-04-15T04:35:47;5.47;;;2.65;;
46701;SDS011;33449;50.712;7.124;2023-04-15T04:38:14;9.30;;;2.70;;
46701;SDS011;33449;50.712;7.124;2023-04-15T04:40:41;9.02;;;3.28;;
46701;SDS011;33449;50.712;7.124;2023-04-15T04:43:08;8.10;;;3.58;;
46701;SDS011;33449;50.712;7.124;2023-04-15T04:45:56;13.48;;;3.65;;
46701;SDS011;33449;50.712;7.124;2023-04-15T04:48:43;10.55;;;4.03;;
46701;SDS011;33449;50.712;7.124;2023-04-15T04:51:12;12.32;;;3.75;;
46701;SDS011;33449;50.712;7.124;2023-04-15T04:53:39;12.70;;;4.03;;
46701;SDS011;33449;50.712;7.124;2023-04-15T04:56:06;10.35;;;5.38;;
46701;SDS011;33449;50.712;7.124;2023-04-15T04:58:33;12.75;;;4.60;;
46701;SDS011;33449;50.712;7.124;2023-04-15T05:01:00;11.65;;;4.93;;
46701;SDS011;33449;50.712;7.124;2023-04-15T05:03:28;11.30;;;4.97;;
46701;SDS011;33449;50.712;7.124;2023-04-15T05:11:32;12.40;;;4.20;;
46701;SDS011;33449;50.712;7.124;2023-04-15T05:13:59;7.32;;;3.90;;
46701;SDS011;33449;50.712;7.124;2023-04-15T05:16:27;9.82;;;4.82;;
46701;SDS011;33449;50.712;7.124;2023-04-15T05:18:54;10.40;;;4.72;;
46701;SDS011;33449;50.712;7.124;2023-04-15T05:21:21;11.27;;;4.43;;
46701;SDS011;33449;50.712;7.124;2023-04-15T05:26:28;12.40;;;4.85;;
46701;SDS011;33449;50.712;7.124;2023-04-15T05:28:56;10.48;;;4.38;;
46701;SDS011;33449;50.712;7.124;2023-04-15T05:31:23;12.27;;;4.88;;
46701;SDS011;33449;50.712;7.124;2023-04-15T05:33:51;10.00;;;4.78;;
46701;SDS011;33449;50.712;7.124;2023-04-15T05:36:18;9.30;;;4.60;;
46701;SDS011;33449;50.712;7.124;2023-04-15T05:41:37;8.77;;;3.72;;
46701;SDS011;33449;50.712;7.124;2023-04-15T05:44:04;9.38;;;3.95;;
46701;SDS011;33449;50.712;7.124;2023-04-15T05:46:31;14.35;;;5.90;;
46701;SDS011;33449;50.712;7.124;2023-04-15T05:48:58;8.32;;;3.25;;
46701;SDS011;33449;50.712;7.124;2023-04-15T05:51:26;10.20;;;4.03;;
46701;SDS011;33449;50.712;7.124;2023-04-15T05:56:24;9.48;;;3.60;;
46701;SDS011;33449;50.712;7.124;2023-04-15T05:58:52;7.53;;;4.00;;
46701;SDS011;33449;50.712;7.124;2023-04-15T06:01:19;9.00;;;3.47;;
46701;SDS011;33449;50.712;7.124;2023-04-15T06:03:47;6.97;;;3.28;;
46701;SDS011;33449;50.712;7.124;2023-04-15T06:06:14;11.13;;;3.45;;
46701;SDS011;33449;50.712;7.124;2023-04-15T06:08:41;10.73;;;4.70;;
46701;SDS011;33449;50.712;7.124;2023-04-15T06:11:08;7.18;;;3.90;;
46701;SDS011;33449;50.712;7.124;2023-04-15T06:13:35;9.73;;;3.70;;
46701;SDS011;33449;50.712;7.124;2023-04-15T06:16:03;8.40;;;4.35;;
46701;SDS011;33449;50.712;7.124;2023-04-15T06:18:30;7.80;;;3.92;;
46701;SDS011;33449;50.712;7.124;2023-04-15T06:20:57;8.48;;;3.40;;
46701;SDS011;33449;50.712;7.124;2023-04-15T06:23:24;9.30;;;3.45;;
46701;SDS011;33449;50.712;7.124;2023-04-15T06:25:53;9.73;;;3.90;;
46701;SDS011;33449;50.712;7.124;2023-04-15T06:28:20;7.03;;;3.88;;
46701;SDS011;33449;50.712;7.124;2023-04-15T06:30:47;7.38;;;3.67;;
46701;SDS011;33449;50.712;7.124;2023-04-15T06:33:14;8.30;;;4.25;;
46701;SDS011;33449;50.712;7.124;2023-04-15T06:35:41;11.65;;;4.93;;
46701;SDS011;33449;50.712;7.124;2023-04-15T06:38:08;9.82;;;4.75;;
46701;SDS011;33449;50.712;7.124;2023-04-15T06:40:35;9.13;;;4.53;;
46701;SDS011;33449;50.712;7.124;2023-04-15T06:43:05;12.02;;;4.57;;
46701;SDS011;33449;50.712;7.124;2023-04-15T06:45:33;13.73;;;4.80;;
46701;SDS011;33449;50.712;7.124;2023-04-15T06:50:44;13.25;;;4.85;;
46701;SDS011;33449;50.712;7.124;2023-04-15T06:53:31;9.02;;;4.65;;
46701;SDS011;33449;50.712;7.124;2023-04-15T06:56:14;10.00;;;4.35;;
46701;SDS011;33449;50.712;7.124;2023-04-15T06:59:10;10.27;;;4.35;;
46701;SDS011;33449;50.712;7.124;2023-04-15T07:01:52;12.20;;;5.53;;
46701;SDS011;33449;50.712;7.124;2023-04-15T07:04:30;14.68;;;5.68;;
46701;SDS011;33449;50.712;7.124;2023-04-15T07:07:01;11.48;;;5.00;;
46701;SDS011;33449;50.712;7.124;2023-04-15T07:10:04;12.73;;;4.55;;
46701;SDS011;33449;50.712;7.124;2023-04-15T07:13:06;13.50;;;4.95;;
46701;SDS011;33449;50.712;7.124;2023-04-15T07:15:35;12.10;;;5.40;;
46701;SDS011;33449;50.712;7.124;2023-04-15T07:18:02;9.60;;;5.18;;
46701;SDS011;33449;50.712;7.124;2023-04-15T07:23:02;9.88;;;5.43;;
46701;SDS011;33449;50.712;7.124;2023-04-15T07:25:30;14.35;;;5.43;;
46701;SDS011;33449;50.712;7.124;2023-04-15T07:27:57;11.60;;;5.65;;
46701;SDS011;33449;50.712;7.124;2023-04-15T07:30:24;10.38;;;5.60;;
46701;SDS011;33449;50.712;7.124;2023-04-15T07:32:51;12.93;;;5.88;;
46701;SDS011;33449;50.712;7.124;2023-04-15T07:38:00;14.93;;;7.18;;
46701;SDS011;33449;50.712;7.124;2023-04-15T07:40:27;13.45;;;6.20;;
46701;SDS011;33449;50.712;7.124;2023-04-15T07:42:55;11.95;;;6.47;;
46701;SDS011;33449;50.712;7.124;2023-04-15T07:45:24;13.55;;;6.28;;
46701;SDS011;33449;50.712;7.124;2023-04-15T07:48:28;15.18;;;6.30;;
46701;SDS011;33449;50.712;7.124;2023-04-15T07:51:25;15.63;;;6.45;;
46701;SDS011;33449;50.712;7.124;2023-04-15T07:54:24;12.70;;;6.32;;
46701;SDS011;33449;50.712;7.124;2023-04-15T07:57:29;9.57;;;6.05;;
46701;SDS011;33449;50.712;7.124;2023-04-15T07:59:56;14.27;;;6.93;;
46701;SDS011;33449;50.712;7.124;2023-04-15T08:04:57;14.25;;;6.40;;
46701;SDS011;33449;50.712;7.124;2023-04-15T08:07:25;16.50;;;6.50;;
46701;SDS011;33449;50.712;7.124;2023-04-15T08:10:16;9.50;;;6.18;;
46701;SDS011;33449;50.712;7.124;2023-04-15T08:13:19;13.02;;;6.68;;
46701;SDS011;33449;50.712;7.124;2023-04-15T08:15:52;13.65;;;6.45;;
46701;SDS011;33449;50.712;7.124;2023-04-15T08:18:33;14.73;;;6.53;;
46701;SDS011;33449;50.712;7.124;2023-04-15T08:21:01;13.55;;;6.50;;
46701;SDS011;33449;50.712;7.124;2023-04-15T08:25:58;15.90;;;5.47;;
46701;SDS011;33449;50.712;7.124;2023-04-15T08:28:25;11.13;;;5.78;;
46701;SDS011;33449;50.712;7.124;2023-04-15T08:30:52;11.57;;;6.22;;
46701;SDS011;33449;50.712;7.124;2023-04-15T08:33:20;15.52;;;6.63;;
46701;SDS011;33449;50.712;7.124;2023-04-15T08:36:03;14.13;;;6.45;;
46701;SDS011;33449;50.712;7.124;2023-04-15T08:38:31;12.57;;;7.00;;
46701;SDS011;33449;50.712;7.124;2023-04-15T08:43:51;11.02;;;6.18;;
46701;SDS011;33449;50.712;7.124;2023-04-15T08:46:37;10.18;;;6.25;;
46701;SDS011;33449;50.712;7.124;2023-04-15T08:51:57;12.18;;;6.63;;
46701;SDS011;33449;50.712;7.124;2023-04-15T08:54:24;14.00;;;6.88;;
46701;SDS011;33449;50.712;7.124;2023-04-15T08:56:52;10.77;;;6.00;;
46701;SDS011;33449;50.712;7.124;2023-04-15T08:59:22;10.75;;;5.82;;
46701;SDS011;33449;50.712;7.124;2023-04-15T09:01:49;11.23;;;6.47;;
46701;SDS011;33449;50.712;7.124;2023-04-15T09:04:17;11.82;;;6.15;;
46701;SDS011;33449;50.712;7.124;2023-04-15T09:06:45;15.98;;;5.80;;
46701;SDS011;33449;50.712;7.124;2023-04-15T09:09:12;13.02;;;5.97;;
46701;SDS011;33449;50.712;7.124;2023-04-15T09:11:56;10.88;;;5.90;;
46701;SDS011;33449;50.712;7.124;2023-04-15T09:14:50;6.80;;;4.53;;
46701;SDS011;33449;50.712;7.124;2023-04-15T09:17:43;4.75;;;2.63;;
46701;SDS011;33449;50.712;7.124;2023-04-15T09:20:37;6.55;;;1.85;;
46701;SDS011;33449;50.712;7.124;2023-04-15T09:23:29;6.22;;;1.90;;
46701;SDS011;33449;50.712;7.124;2023-04-15T09:26:10;2.13;;;1.20;;
46701;SDS011;33449;50.712;7.124;2023-04-15T09:28:51;3.50;;;1.35;;
46701;SDS011;33449;50.712;7.124;2023-04-15T09:31:35;3.65;;;1.58;;
46701;SDS011;33449;50.712;7.124;2023-04-15T09:34:18;4.00;;;1.70;;
46701;SDS011;33449;50.712;7.124;2023-04-15T09:37:04;5.18;;;1.95;;
46701;SDS011;33449;50.712;7.124;2023-04-15T09:39:50;4.03;;;1.60;;
46701;SDS011;33449;50.712;7.124;2023-04-15T09:42:54;3.95;;;1.40;;
46701;SDS011;33449;50.712;7.124;2023-04-15T09:45:36;5.38;;;1.33;;
46701;SDS011;33449;50.712;7.124;2023-04-15T09:48:19;5.30;;;2.00;;
46701;SDS011;33449;50.712;7.124;2023-04-15T09:51:01;3.45;;;1.50;;
46701;SDS011;33449;50.712;7.124;2023-04-15T09:53:44;3.60;;;1.40;;
46701;SDS011;33449;50.712;7.124;2023-04-15T09:56:36;2.47;;;1.58;;
46701;SDS011;33449;50.712;7.124;2023-04-15T09:59:08;5.65;;;2.05;;
46701;SDS011;33449;50.712;7.124;2023-04-15T10:01:49;4.28;;;1.77;;
46701;SDS011;33449;50.712;7.124;2023-04-15T10:04:38;2.45;;;1.25;;
46701;SDS011;33449;50.712;7.124;2023-04-15T10:10:09;2.33;;;1.20;;
46701;SDS011;33449;50.712;7.124;2023-04-15T10:12:59;3.92;;;1.52;;
46701;SDS011;33449;50.712;7.124;2023-04-15T10:15:33;12.77;;;5.10;;
46701;SDS011;33449;50.712;7.124;2023-04-15T10:18:27;4.00;;;2.10;;
46701;SDS011;33449;50.712;7.124;2023-04-15T10:20:54;2.47;;;1.63;;
46701;SDS011;33449;50.712;7.124;2023-04-15T10:23:21;4.10;;;1.50;;
46701;SDS011;33449;50.712;7.124;2023-04-15T10:26:05;3.70;;;1.42;;
46701;SDS011;33449;50.712;7.124;2023-04-15T10:28:51;2.53;;;1.33;;
46701;SDS011;33449;50.712;7.124;2023-04-15T10:31:34;3.35;;;1.45;;
46701;SDS011;33449;50.712;7.124;2023-04-15T10:34:20;3.78;;;1.60;;
46701;SDS011;33449;50.712;7.124;2023-04-15T10:36:48;2.78;;;1.48;;
46701;SDS011;33449;50.712;7.124;2023-04-15T10:39:56;3.20;;;1.67;;
46701;SDS011;33449;50.712;7.124;2023-04-15T10:45:32;3.55;;;1.75;;
46701;SDS011;33449;50.712;7.124;2023-04-15T10:50:56;2.53;;;1.73;;
46701;SDS011;33449;50.712;7.124;2023-04-15T10:53:37;3.20;;;2.00;;
46701;SDS011;33449;50.712;7.124;2023-04-15T10:56:27;3.45;;;1.85;;
46701;SDS011;33449;50.712;7.124;2023-04-15T10:59:11;3.97;;;1.95;;
46701;SDS011;33449;50.712;7.124;2023-04-15T11:01:59;4.55;;;1.90;;
46701;SDS011;33449;50.712;7.124;2023-04-15T11:04:55;4.55;;;1.70;;
46701;SDS011;33449;50.712;7.124;2023-04-15T11:07:47;2.70;;;1.70;;
46701;SDS011;33449;50.712;7.124;2023-04-15T11:13:14;2.47;;;1.92;;
46701;SDS011;33449;50.712;7.124;2023-04-15T11:16:01;3.70;;;2.30;;
46701;SDS011;33449;50.712;7.124;2023-04-15T11:21:24;4.07;;;1.80;;
46701;SDS011;33449;50.712;7.124;2023-04-15T11:24:07;6.00;;;2.50;;
46701;SDS011;33449;50.712;7.124;2023-04-15T11:26:56;4.63;;;2.72;;
46701;SDS011;33449;50.712;7.124;2023-04-15T11:32:20;4.45;;;2.53;;
46701;SDS011;33449;50.712;7.124;2023-04-15T11:35:02;4.50;;;3.05;;
46701;SDS011;33449;50.712;7.124;2023-04-15T11:37:54;9.65;;;3.33;;
46701;SDS011;33449;50.712;7.124;2023-04-15T11:48:59;4.65;;;3.05;;
46701;SDS011;33449;50.712;7.124;2023-04-15T12:43:48;3.33;;;2.30;;
46701;SDS011;33449;50.712;7.124;2023-04-15T12:46:31;2.72;;;1.90;;
46701;SDS011;33449;50.712;7.124;2023-04-15T12:49:14;3.55;;;1.95;;
46701;SDS011;33449;50.712;7.124;2023-04-15T12:52:03;3.25;;;2.15;;
46701;SDS011;33449;50.712;7.124;2023-04-15T12:54:44;3.28;;;2.40;;
46701;SDS011;33449;50.712;7.124;2023-04-15T12:57:31;2.35;;;1.70;;
46701;SDS011;33449;50.712;7.124;2023-04-15T13:00:13;3.78;;;2.53;;
46701;SDS011;33449;50.712;7.124;2023-04-15T13:02:55;2.95;;;2.05;;
46701;SDS011;33449;50.712;7.124;2023-04-15T13:05:37;2.38;;;2.10;;
46701;SDS011;33449;50.712;7.124;2023-04-15T13:11:07;3.25;;;2.20;;
46701;SDS011;33449;50.712;7.124;2023-04-15T13:14:05;6.78;;;2.47;;
46701;SDS011;33449;50.712;7.124;2023-04-15T13:16:50;3.35;;;2.15;;
46701;SDS011;33449;50.712;7.124;2023-04-15T13:19:38;5.18;;;2.83;;
46701;SDS011;33449;50.712;7.124;2023-04-15T13:22:19;5.47;;;3.75;;
46701;SDS011;33449;50.712;7.124;2023-04-15T13:27:52;4.70;;;3.20;;
46701;SDS011;33449;50.712;7.124;2023-04-15T13:30:33;5.68;;;3.60;;
46701;SDS011;33449;50.712;7.124;2023-04-15T13:33:16;5.95;;;3.60;;
46701;SDS011;33449;50.712;7.124;2023-04-15T13:36:03;4.30;;;3.35;;
46701;SDS011;33449;50.712;7.124;2023-04-15T13:38:51;4.90;;;3.22;;
46701;SDS011;33449;50.712;7.124;2023-04-15T13:41:24;5.88;;;4.28;;
46701;SDS011;33449;50.712;7.124;2023-04-15T13:44:06;4.40;;;2.97;;
46701;SDS011;33449;50.712;7.124;2023-04-15T13:46:48;4.93;;;3.38;;
46701;SDS011;33449;50.712;7.124;2023-04-15T13:49:30;4.78;;;3.33;;
46701;SDS011;33449;50.712;7.124;2023-04-15T13:52:02;5.22;;;3.20;;
46701;SDS011;33449;50.712;7.124;2023-04-15T13:54:43;5.13;;;3.47;;
46701;SDS011;33449;50.712;7.124;2023-04-15T13:57:29;8.73;;;4.00;;
46701;SDS011;33449;50.712;7.124;2023-04-15T14:00:19;6.20;;;4.30;;
46701;SDS011;33449;50.712;7.124;2023-04-15T14:03:01;6.43;;;4.65;;
46701;SDS011;33449;50.712;7.124;2023-04-15T14:05:54;5.90;;;4.95;;
46701;SDS011;33449;50.712;7.124;2023-04-15T14:08:37;7.90;;;5.10;;
46701;SDS011;33449;50.712;7.124;2023-04-15T14:11:19;7.22;;;5.72;;
46701;SDS011;33449;50.712;7.124;2023-04-15T14:14:00;8.95;;;6.10;;
46701;SDS011;33449;50.712;7.124;2023-04-15T14:16:42;10.15;;;7.00;;
46701;SDS011;33449;50.712;7.124;2023-04-15T14:19:38;9.20;;;7.32;;
46701;SDS011;33449;50.712;7.124;2023-04-15T14:22:20;10.95;;;8.55;;
46701;SDS011;33449;50.712;7.124;2023-04-15T14:27:50;11.98;;;8.18;;
46701;SDS011;33449;50.712;7.124;2023-04-15T14:30:43;10.48;;;8.23;;
46701;SDS011;33449;50.712;7.124;2023-04-15T14:33:26;11.00;;;8.33;;
46701;SDS011;33449;50.712;7.124;2023-04-15T14:36:08;12.57;;;7.63;;
46701;SDS011;33449;50.712;7.124;2023-04-15T14:38:49;10.63;;;8.40;;
46701;SDS011;33449;50.712;7.124;2023-04-15T14:41:31;12.15;;;9.30;;
46701;SDS011;33449;50.712;7.124;2023-04-15T14:44:12;11.93;;;8.43;;
46701;SDS011;33449;50.712;7.124;2023-04-15T14:46:54;12.45;;;8.73;;
46701;SDS011;33449;50.712;7.124;2023-04-15T14:49:29;11.10;;;7.95;;
46701;SDS011;33449;50.712;7.124;2023-04-15T14:52:11;11.27;;;8.30;;
46701;SDS011;33449;50.712;7.124;2023-04-15T14:54:54;10.95;;;7.38;;
46701;SDS011;33449;50.712;7.124;2023-04-15T15:00:16;9.73;;;6.43;;
46701;SDS011;33449;50.712;7.124;2023-04-15T15:02:58;8.88;;;5.63;;
46701;SDS011;33449;50.712;7.124;2023-04-15T15:05:45;6.78;;;4.45;;
46701;SDS011;33449;50.712;7.124;2023-04-15T15:08:27;6.85;;;4.35;;
46701;SDS011;33449;50.712;7.124;2023-04-15T15:11:15;8.30;;;5.40;;
46701;SDS011;33449;50.712;7.124;2023-04-15T15:14:01;8.63;;;4.47;;
46701;SDS011;33449;50.712;7.124;2023-04-15T15:16:45;9.55;;;5.43;;
46701;SDS011;33449;50.712;7.124;2023-04-15T15:19:35;8.90;;;5.68;;
46701;SDS011;33449;50.712;7.124;2023-04-15T15:22:20;9.52;;;5.70;;
46701;SDS011;33449;50.712;7.124;2023-04-15T15:27:37;12.52;;;7.25;;
46701;SDS011;33449;50.712;7.124;2023-04-15T15:30:22;11.32;;;7.25;;
46701;SDS011;33449;50.712;7.124;2023-04-15T15:33:04;10.98;;;7.10;;
46701;SDS011;33449;50.712;7.124;2023-04-15T15:35:49;11.68;;;7.80;;
46701;SDS011;33449;50.712;7.124;2023-04-15T15:39:03;15.65;;;8.52;;
46701;SDS011;33449;50.712;7.124;2023-04-15T15:41:47;15.25;;;8.65;;
46701;SDS011;33449;50.712;7.124;2023-04-15T15:44:31;15.52;;;9.02;;
46701;SDS011;33449;50.712;7.124;2023-04-15T15:52:59;17.85;;;10.65;;
46701;SDS011;33449;50.712;7.124;2023-04-15T15:55:43;16.98;;;9.15;;
46701;SDS011;33449;50.712;7.124;2023-04-15T15:58:31;15.63;;;9.85;;
46701;SDS011;33449;50.712;7.124;2023-04-15T16:01:25;18.83;;;10.07;;
46701;SDS011;33449;50.712;7.124;2023-04-15T16:04:09;22.70;;;11.13;;
46701;SDS011;33449;50.712;7.124;2023-04-15T16:06:53;16.75;;;10.50;;
46701;SDS011;33449;50.712;7.124;2023-04-15T16:09:28;14.85;;;9.70;;
46701;SDS011;33449;50.712;7.124;2023-04-15T16:12:10;17.45;;;10.63;;
46701;SDS011;33449;50.712;7.124;2023-04-15T16:14:54;15.57;;;9.73;;
46701;SDS011;33449;50.712;7.124;2023-04-15T16:17:41;18.05;;;10.60;;
46701;SDS011;33449;50.712;7.124;2023-04-15T16:20:25;21.42;;;12.13;;
46701;SDS011;33449;50.712;7.124;2023-04-15T16:23:00;18.88;;;11.07;;
46701;SDS011;33449;50.712;7.124;2023-04-15T16:25:47;18.10;;;11.70;;
46701;SDS011;33449;50.712;7.124;2023-04-15T16:28:23;22.08;;;12.73;;
46701;SDS011;33449;50.712;7.124;2023-04-15T16:31:04;20.42;;;13.23;;
46701;SDS011;33449;50.712;7.124;2023-04-15T16:33:46;21.13;;;12.93;;
46701;SDS011;33449;50.712;7.124;2023-04-15T16:36:21;17.40;;;13.20;;
46701;SDS011;33449;50.712;7.124;2023-04-15T16:38:55;16.42;;;11.23;;
46701;SDS011;33449;50.712;7.124;2023-04-15T16:41:38;17.30;;;11.25;;
46701;SDS011;33449;50.712;7.124;2023-04-15T16:44:23;17.08;;;9.68;;
46701;SDS011;33449;50.712;7.124;2023-04-15T16:47:04;17.50;;;8.90;;
46701;SDS011;33449;50.712;7.124;2023-04-15T16:49:51;17.60;;;10.25;;
46701;SDS011;33449;50.712;7.124;2023-04-15T16:52:32;15.23;;;9.77;;
46701;SDS011;33449;50.712;7.124;2023-04-15T16:55:16;18.38;;;9.38;;
46701;SDS011;33449;50.712;7.124;2023-04-15T16:57:49;13.68;;;8.27;;
46701;SDS011;33449;50.712;7.124;2023-04-15T17:00:29;13.75;;;9.30;;
46701;SDS011;33449;50.712;7.124;2023-04-15T17:03:11;15.90;;;10.27;;
46701;SDS011;33449;50.712;7.124;2023-04-15T17:05:52;16.15;;;9.30;;
46701;SDS011;33449;50.712;7.124;2023-04-15T17:08:34;17.50;;;9.88;;
46701;SDS011;33449;50.712;7.124;2023-04-15T17:11:15;18.73;;;12.18;;
46701;SDS011;33449;50.712;7.124;2023-04-15T17:13:57;19.42;;;11.55;;
46701;SDS011;33449;50.712;7.124;2023-04-15T17:16:38;16.25;;;10.30;;
46701;SDS011;33449;50.712;7.124;2023-04-15T17:19:19;16.35;;;11.05;;
46701;SDS011;33449;50.712;7.124;2023-04-15T17:24:49;17.55;;;9.30;;
46701;SDS011;33449;50.712;7.124;2023-04-15T17:27:30;18.00;;;10.73;;
46701;SDS011;33449;50.712;7.124;2023-04-15T17:30:12;18.70;;;11.55;;
46701;SDS011;33449;50.712;7.124;2023-04-15T17:32:54;21.23;;;11.52;;
46701;SDS011;33449;50.712;7.124;2023-04-15T17:35:23;20.33;;;12.40;;
46701;SDS011;33449;50.712;7.124;2023-04-15T17:37:53;23.00;;;11.93;;
46701;SDS011;33449;50.712;7.124;2023-04-15T17:40:34;18.17;;;10.93;;
46701;SDS011;33449;50.712;7.124;2023-04-15T17:43:16;18.90;;;11.93;;
46701;SDS011;33449;50.712;7.124;2023-04-15T17:45:47;23.13;;;12.43;;
46701;SDS011;33449;50.712;7.124;2023-04-15T17:48:17;15.32;;;10.32;;
46701;SDS011;33449;50.712;7.124;2023-04-15T17:50:48;20.75;;;10.57;;
46701;SDS011;33449;50.712;7.124;2023-04-15T17:53:30;13.95;;;9.07;;
46701;SDS011;33449;50.712;7.124;2023-04-15T17:56:11;12.98;;;8.05;;
46701;SDS011;33449;50.712;7.124;2023-04-15T17:58:52;16.40;;;9.05;;
46701;SDS011;33449;50.712;7.124;2023-04-15T18:01:34;12.68;;;8.20;;
46701;SDS011;33449;50.712;7.124;2023-04-15T18:04:15;16.85;;;8.10;;
46701;SDS011;33449;50.712;7.124;2023-04-15T18:09:33;14.38;;;9.00;;
46701;SDS011;33449;50.712;7.124;2023-04-15T18:12:15;16.73;;;8.65;;
46701;SDS011;33449;50.712;7.124;2023-04-15T18:14:57;16.88;;;9.77;;
46701;SDS011;33449;50.712;7.124;2023-04-15T18:17:40;14.00;;;8.52;;
46701;SDS011;33449;50.712;7.124;2023-04-15T18:20:24;12.77;;;7.15;;
46701;SDS011;33449;50.712;7.124;2023-04-15T18:22:51;12.02;;;6.88;;
46701;SDS011;33449;50.712;7.124;2023-04-15T18:25:18;13.95;;;8.30;;
46701;SDS011;33449;50.712;7.124;2023-04-15T18:27:46;13.07;;;7.40;;
46701;SDS011;33449;50.712;7.124;2023-04-15T18:30:31;12.95;;;6.90;;
46701;SDS011;33449;50.712;7.124;2023-04-15T18:41:04;11.13;;;6.40;;
46701;SDS011;33449;50.712;7.124;2023-04-15T18:43:34;8.85;;;6.47;;
46701;SDS011;33449;50.712;7.124;2023-04-15T18:46:01;14.02;;;7.47;;
46701;SDS011;33449;50.712;7.124;2023-04-15T18:48:33;9.13;;;6.50;;
46701;SDS011;33449;50.712;7.124;2023-04-15T18:53:33;10.93;;;6.95;;
46701;SDS011;33449;50.712;7.124;2023-04-15T18:56:00;10.05;;;7.43;;
46701;SDS011;33449;50.712;7.124;2023-04-15T18:58:28;14.13;;;9.50;;